Terminal Aerodrome Forecast
Issued by NWS

Home | Current Version | Previous Version | Text Only | Print | Product List | Glossary On
Versions: 1 2 3 4 5 6 7 8 9 10 11 12 13 14
000
FTUS43 KFGF 021100
TAFDVL
TAF
KDVL 021133Z 0212/0312 25007KT P6SM BKN080
     FM021400 24011KT P6SM VCSH BKN060
     FM021900 26014G21KT P6SM SCT100
     FM030100 21006KT P6SM SKC
      AMD LTD TO CLD VIS AND WIND=

USA.gov is the U.S. government's official web portal to all federal, state and local government web resources and services.